Time;durP1;ratioP1;P1;durP2;ratioP2;P2;SDS_P1;SDS_P2;PMS_P1;PMS_P2;Temp;Humidity;BMP_temperature;BMP_pressure;BME280_temperature;BME280_humidity;BME280_pressure;Samples;Min_cycle;Max_cycle;Signal;HPM_P1;HPM_P2
2021/05/23 00:02:17;;;;;;;2.33;2.13;;;12.40;1.00;;;;;;4997340;28;20419;-77
2021/05/23 00:04:44;;;;;;;2.47;2.27;;;12.30;1.00;;;;;;5009696;28;20568;-78
2021/05/23 00:07:12;;;;;;;5.03;2.00;;;12.30;1.00;;;;;;5007660;28;20425;-78
2021/05/23 00:09:39;;;;;;;2.50;2.30;;;12.20;1.00;;;;;;5019567;28;20453;-78
2021/05/23 00:12:07;;;;;;;2.67;2.47;;;12.20;1.00;;;;;;5021930;28;20417;-77
2021/05/23 00:14:35;;;;;;;2.50;2.30;;;12.10;1.00;;;;;;5011868;28;21044;-77
2021/05/23 00:17:01;;;;;;;2.03;1.87;;;12.10;1.00;;;;;;5014058;28;21610;-77
2021/05/23 00:19:27;;;;;;;3.47;2.40;;;12.10;1.00;;;;;;4997633;28;20453;-76
2021/05/23 00:21:53;;;;;;;2.33;2.10;;;12.00;1.00;;;;;;5068253;22;20469;-77
2021/05/23 00:24:20;;;;;;;3.03;2.67;;;12.00;1.00;;;;;;4997087;28;20448;-76
2021/05/23 00:26:46;;;;;;;2.70;2.50;;;12.00;1.00;;;;;;5004047;28;20472;-77
2021/05/23 00:29:13;;;;;;;2.50;2.30;;;12.00;1.00;;;;;;5005444;28;20488;-77
2021/05/23 00:31:39;;;;;;;2.87;2.63;;;11.90;1.00;;;;;;4995296;28;20492;-78
2021/05/23 00:34:05;;;;;;;2.73;2.50;;;11.90;1.00;;;;;;5007591;28;20510;-78
2021/05/23 00:36:31;;;;;;;3.30;3.00;;;11.80;1.00;;;;;;4987463;28;20706;-78
2021/05/23 00:38:57;;;;;;;4.10;2.67;;;11.80;1.00;;;;;;4987604;28;20450;-79
2021/05/23 00:41:24;;;;;;;4.00;3.03;;;11.80;1.00;;;;;;4990356;28;20460;-78
2021/05/23 00:43:51;;;;;;;3.37;3.07;;;11.80;1.00;;;;;;4992167;28;20558;-76
2021/05/23 00:46:17;;;;;;;2.95;2.70;;;11.70;1.00;;;;;;4986962;28;20443;-76
2021/05/23 00:48:43;;;;;;;2.77;2.57;;;11.70;1.00;;;;;;4989628;28;20231;-78
2021/05/23 00:51:09;;;;;;;3.23;2.67;;;11.70;1.00;;;;;;4987934;28;20473;-77
2021/05/23 00:53:35;;;;;;;3.40;3.10;;;11.70;1.00;;;;;;4973610;28;20430;-78
2021/05/23 00:56:02;;;;;;;3.77;3.47;;;11.60;1.00;;;;;;4986239;28;20465;-78
2021/05/23 00:58:29;;;;;;;2.83;2.63;;;11.60;1.00;;;;;;4985012;28;20457;-78
2021/05/23 01:01:11;;;;;;;3.57;2.67;;;11.60;1.00;;;;;;4998485;28;20463;-77
2021/05/23 01:04:05;;;;;;;2.80;2.60;;;11.60;1.00;;;;;;4994064;28;21269;-78
2021/05/23 01:06:32;;;;;;;4.73;3.03;;;11.60;1.00;;;;;;4938689;28;20547;-77
2021/05/23 01:08:59;;;;;;;4.63;2.80;;;11.60;1.00;;;;;;4988710;28;21403;-78
2021/05/23 01:12:10;;;;;;;3.20;2.97;;;11.60;1.00;;;;;;4997958;28;20473;-79
2021/05/23 01:14:54;;;;;;;4.03;3.30;;;11.70;1.00;;;;;;5000939;28;20498;-77
2021/05/23 01:17:26;;;;;;;4.23;2.50;;;11.70;1.00;;;;;;5002371;28;21210;-78
2021/05/23 01:20:26;;;;;;;2.70;2.50;;;11.70;1.00;;;;;;5005111;28;20453;-78
2021/05/23 01:22:59;;;;;;;2.97;2.77;;;11.60;1.00;;;;;;4992173;28;20467;-77
2021/05/23 01:25:28;;;;;;;3.53;3.23;;;11.60;1.00;;;;;;4998391;28;20780;-77
2021/05/23 01:27:57;;;;;;;3.30;3.00;;;11.60;1.00;;;;;;4998674;28;20455;-77
2021/05/23 01:30:27;;;;;;;3.10;2.90;;;11.60;1.00;;;;;;4999961;28;20441;-77
2021/05/23 01:32:58;;;;;;;3.27;2.97;;;11.50;1.00;;;;;;4996286;28;20474;-77
2021/05/23 01:35:30;;;;;;;3.97;3.10;;;11.50;1.00;;;;;;5004379;28;20463;-76
2021/05/23 01:38:00;;;;;;;2.90;2.70;;;11.40;1.00;;;;;;5004725;28;20422;-77
2021/05/23 01:40:29;;;;;;;3.63;3.42;;;11.40;1.00;;;;;;5009021;28;20450;-77
2021/05/23 01:42:56;;;;;;;3.57;3.33;;;11.30;1.00;;;;;;5007481;28;20277;-77
2021/05/23 01:45:22;;;;;;;3.83;3.53;;;11.30;1.00;;;;;;4993829;28;21166;-78
2021/05/23 01:47:49;;;;;;;4.70;3.20;;;11.20;1.00;;;;;;5002520;28;20527;-76
2021/05/23 01:50:17;;;;;;;3.00;2.80;;;11.20;1.00;;;;;;5004796;28;20445;-77
2021/05/23 01:52:47;;;;;;;4.10;3.80;;;11.20;1.00;;;;;;5014647;28;20532;-78
2021/05/23 01:55:14;;;;;;;4.60;3.40;;;11.20;1.00;;;;;;5009676;28;20429;-77
2021/05/23 01:57:41;;;;;;;4.00;3.70;;;11.10;1.00;;;;;;5005876;28;20528;-76
2021/05/23 02:00:08;;;;;;;3.80;3.50;;;11.10;1.00;;;;;;5001411;28;20457;-77
2021/05/23 02:02:35;;;;;;;3.80;3.53;;;11.00;1.00;;;;;;5005495;28;21176;-78
2021/05/23 02:05:01;;;;;;;5.37;3.83;;;11.00;1.00;;;;;;4998792;28;20525;-78
2021/05/23 02:07:27;;;;;;;3.73;3.40;;;11.00;1.00;;;;;;5000901;28;20466;-80
2021/05/23 02:09:55;;;;;;;3.60;3.30;;;10.90;1.00;;;;;;5002347;28;20464;-79
2021/05/23 02:12:22;;;;;;;4.00;3.70;;;10.90;1.00;;;;;;5002746;28;20438;-79
2021/05/23 02:14:49;;;;;;;3.63;3.33;;;10.90;1.00;;;;;;4999277;28;20476;-77
2021/05/23 02:17:15;;;;;;;3.77;3.57;;;10.90;1.00;;;;;;5003543;28;20419;-77
2021/05/23 02:19:44;;;;;;;3.97;3.70;;;10.80;1.00;;;;;;4999807;28;20443;-77
2021/05/23 02:22:11;;;;;;;3.10;2.90;;;10.80;1.00;;;;;;4983939;28;20451;-77
2021/05/23 02:24:37;;;;;;;4.03;3.67;;;10.80;1.00;;;;;;4983028;28;21286;-78
2021/05/23 02:27:04;;;;;;;3.65;3.35;;;10.70;1.00;;;;;;4983923;28;20977;-77
2021/05/23 02:29:32;;;;;;;4.45;3.78;;;10.60;1.00;;;;;;4982727;28;20225;-78
2021/05/23 02:31:59;;;;;;;3.28;3.00;;;10.60;1.00;;;;;;4981084;28;20690;-79
2021/05/23 02:34:26;;;;;;;3.53;3.25;;;10.50;1.00;;;;;;4987051;28;20328;-80
2021/05/23 02:36:52;;;;;;;3.63;3.33;;;10.50;1.00;;;;;;4981782;28;20233;-78
2021/05/23 02:39:20;;;;;;;3.42;3.15;;;10.40;1.00;;;;;;4980631;28;20455;-78
2021/05/23 02:41:47;;;;;;;3.77;3.47;;;10.40;1.00;;;;;;4983775;28;20234;-78
2021/05/23 02:44:13;;;;;;;4.17;3.83;;;10.40;1.00;;;;;;4983517;28;20419;-77
2021/05/23 02:46:39;;;;;;;3.80;3.33;;;10.40;1.00;;;;;;4987599;28;20458;-78
2021/05/23 02:49:06;;;;;;;3.72;3.45;;;10.30;1.00;;;;;;4984588;28;20448;-78
2021/05/23 02:51:32;;;;;;;4.47;3.85;;;10.30;1.00;;;;;;4986081;28;20264;-79
2021/05/23 02:53:58;;;;;;;3.97;3.63;;;10.20;1.00;;;;;;4982537;28;20252;-80
2021/05/23 02:56:24;;;;;;;3.45;3.25;;;10.20;1.00;;;;;;4982122;28;20437;-79
2021/05/23 02:58:50;;;;;;;3.83;2.92;;;10.20;1.00;;;;;;4987851;28;20220;-77
2021/05/23 03:01:17;;;;;;;4.10;3.70;;;10.10;1.00;;;;;;4980884;28;21269;-80
2021/05/23 03:03:43;;;;;;;3.72;3.45;;;10.10;1.00;;;;;;4987402;28;20234;-79
2021/05/23 03:06:10;;;;;;;4.97;3.50;;;10.10;1.00;;;;;;4982483;28;20306;-76
2021/05/23 03:08:37;;;;;;;3.20;3.00;;;10.10;1.00;;;;;;4981196;28;20282;-79
2021/05/23 03:11:04;;;;;;;3.38;3.08;;;10.10;1.00;;;;;;4983961;28;20877;-77
2021/05/23 03:13:30;;;;;;;3.38;3.08;;;10.10;1.00;;;;;;4970105;28;20225;-79
2021/05/23 03:15:56;;;;;;;3.00;2.80;;;10.00;1.00;;;;;;4986550;28;20229;-77
2021/05/23 03:18:22;;;;;;;3.65;3.33;;;10.00;1.00;;;;;;4980652;28;20230;-79
2021/05/23 03:20:48;;;;;;;3.77;3.47;;;10.00;1.00;;;;;;4963649;28;20232;-78
2021/05/23 03:23:16;;;;;;;4.03;3.72;;;10.00;1.00;;;;;;4978762;28;20522;-77
2021/05/23 03:25:42;;;;;;;3.60;3.30;;;10.00;1.00;;;;;;4991850;28;20227;-77
2021/05/23 03:28:10;;;;;;;3.72;3.20;;;10.00;1.00;;;;;;4990791;28;21047;-78
2021/05/23 03:30:40;;;;;;;4.30;3.20;;;10.00;1.00;;;;;;4980623;28;20220;-78
2021/05/23 03:33:09;;;;;;;3.45;2.95;;;10.00;1.00;;;;;;4980543;28;20225;-78
2021/05/23 03:35:35;;;;;;;3.30;3.03;;;10.10;1.00;;;;;;4984456;28;20240;-78
2021/05/23 03:38:03;;;;;;;3.38;3.17;;;10.10;1.00;;;;;;4979777;28;20450;-79
2021/05/23 03:40:31;;;;;;;3.77;3.37;;;10.10;1.00;;;;;;4982297;28;20245;-80
2021/05/23 03:42:58;;;;;;;4.25;3.00;;;10.10;1.00;;;;;;4977255;28;20458;-79
2021/05/23 03:45:25;;;;;;;3.20;3.00;;;10.10;1.00;;;;;;4979291;28;20254;-80
2021/05/23 03:47:52;;;;;;;3.15;2.85;;;10.10;1.00;;;;;;4975488;28;20735;-79
2021/05/23 03:50:21;;;;;;;3.83;3.47;;;10.10;1.00;;;;;;4974988;28;20426;-80
2021/05/23 03:52:47;;;;;;;2.97;2.78;;;10.10;1.00;;;;;;4966822;28;20234;-78
2021/05/23 03:55:14;;;;;;;3.28;2.97;;;10.10;1.00;;;;;;4983068;28;20238;-77
2021/05/23 03:57:41;;;;;;;3.50;3.17;;;10.10;1.00;;;;;;4985127;28;20245;-79
2021/05/23 04:00:09;;;;;;;3.40;3.10;;;10.10;1.00;;;;;;4980510;28;20234;-78
2021/05/23 04:02:35;;;;;;;3.83;3.45;;;10.10;1.00;;;;;;4986966;28;20571;-78
2021/05/23 04:05:01;;;;;;;3.65;3.35;;;10.20;1.00;;;;;;4977139;28;20373;-78
2021/05/23 04:07:28;;;;;;;3.83;3.43;;;10.10;1.00;;;;;;4984604;28;20346;-79
2021/05/23 04:09:55;;;;;;;3.58;3.28;;;10.10;1.00;;;;;;4981163;28;21164;-79
2021/05/23 04:12:23;;;;;;;5.63;3.65;;;10.10;1.00;;;;;;4985532;28;20228;-80
2021/05/23 04:14:50;;;;;;;3.03;2.80;;;10.10;1.00;;;;;;4982290;28;20237;-79
2021/05/23 04:17:16;;;;;;;5.38;3.60;;;10.10;1.00;;;;;;4987094;28;21072;-78
2021/05/23 04:19:43;;;;;;;4.45;3.28;;;10.10;1.00;;;;;;4982894;28;20230;-79
2021/05/23 04:22:09;;;;;;;3.92;3.30;;;10.20;1.00;;;;;;4998767;28;20220;-78
2021/05/23 04:24:37;;;;;;;3.33;3.00;;;10.30;1.00;;;;;;4998071;28;20340;-78
2021/05/23 04:27:04;;;;;;;3.47;3.17;;;10.50;1.00;;;;;;5007081;28;20234;-77
2021/05/23 04:29:32;;;;;;;3.13;2.92;;;10.70;1.00;;;;;;5000795;28;20249;-79
2021/05/23 04:32:01;;;;;;;3.42;2.90;;;10.70;1.00;;;;;;5009181;28;20359;-78
2021/05/23 04:34:27;;;;;;;4.00;3.20;;;10.80;1.00;;;;;;5005268;28;20353;-78
2021/05/23 04:36:53;;;;;;;3.25;2.40;;;10.90;1.00;;;;;;5007041;28;21143;-80
2021/05/23 04:39:20;;;;;;;4.50;3.20;;;10.90;1.00;;;;;;5006334;28;20307;-78
2021/05/23 04:41:46;;;;;;;3.33;2.93;;;11.00;1.00;;;;;;5003296;28;20975;-79
2021/05/23 04:44:12;;;;;;;3.47;2.90;;;11.00;1.00;;;;;;5009092;28;20459;-77
2021/05/23 04:46:38;;;;;;;3.40;3.10;;;11.20;1.00;;;;;;5003426;28;20419;-79
2021/05/23 04:49:05;;;;;;;4.60;3.30;;;11.30;1.00;;;;;;5009811;28;20221;-79
2021/05/23 04:51:32;;;;;;;3.70;2.83;;;11.30;1.00;;;;;;5002208;28;20506;-78
2021/05/23 04:53:58;;;;;;;3.20;2.70;;;11.40;1.00;;;;;;5005580;28;20462;-78
2021/05/23 04:56:24;;;;;;;2.67;2.47;;;11.40;1.00;;;;;;5002845;28;20454;-80
2021/05/23 04:58:50;;;;;;;3.00;2.80;;;11.40;1.00;;;;;;5004788;28;20452;-79
2021/05/23 05:01:16;;;;;;;3.13;2.63;;;11.40;1.00;;;;;;5001791;28;20442;-80
2021/05/23 05:03:42;;;;;;;2.80;2.23;;;11.40;1.00;;;;;;5000613;28;20449;-78
2021/05/23 05:06:09;;;;;;;4.17;2.70;;;11.40;1.00;;;;;;5005811;28;20458;-82
2021/05/23 05:08:35;;;;;;;3.43;2.57;;;11.50;1.00;;;;;;5002930;28;20497;-78
2021/05/23 05:11:02;;;;;;;2.93;2.43;;;11.60;1.00;;;;;;5008149;28;20425;-80
2021/05/23 05:13:28;;;;;;;2.93;2.67;;;11.60;1.00;;;;;;5021748;28;20540;-78
2021/05/23 05:15:54;;;;;;;2.80;2.40;;;11.60;1.00;;;;;;5028659;28;20428;-77
2021/05/23 05:18:20;;;;;;;2.60;2.40;;;11.80;1.00;;;;;;5027807;28;20488;-78
2021/05/23 05:20:47;;;;;;;2.60;2.40;;;11.90;1.00;;;;;;5028810;28;20505;-77
2021/05/23 05:23:14;;;;;;;2.60;2.40;;;12.00;1.00;;;;;;5021910;28;20506;-78
2021/05/23 05:25:40;;;;;;;2.30;2.10;;;12.10;1.00;;;;;;5022833;28;20435;-78
2021/05/23 05:28:06;;;;;;;4.43;2.20;;;12.20;1.00;;;;;;5013778;28;20492;-78
2021/05/23 05:30:32;;;;;;;2.93;2.73;;;12.30;1.00;;;;;;5019983;28;20438;-76
2021/05/23 05:32:58;;;;;;;2.90;1.97;;;12.30;1.00;;;;;;5021602;28;20497;-78
2021/05/23 05:35:25;;;;;;;2.40;2.10;;;12.20;1.00;;;;;;5020015;28;20506;-77
2021/05/23 05:37:51;;;;;;;2.33;2.03;;;12.20;1.00;;;;;;5018590;28;20540;-77
2021/05/23 05:40:18;;;;;;;3.10;2.20;;;12.30;1.00;;;;;;5016839;28;20457;-77
2021/05/23 05:42:44;;;;;;;2.07;1.87;;;12.20;1.00;;;;;;5011758;28;20538;-77
2021/05/23 05:45:12;;;;;;;2.70;2.30;;;12.20;1.00;;;;;;5003331;28;20431;-78
2021/05/23 05:47:38;;;;;;;1.80;1.67;;;12.00;1.00;;;;;;4999738;28;21231;-78
2021/05/23 05:50:05;;;;;;;2.53;2.33;;;11.80;1.00;;;;;;4999634;28;20461;-79
2021/05/23 05:52:32;;;;;;;2.17;1.97;;;11.80;1.00;;;;;;5005244;28;20468;-78
2021/05/23 05:54:58;;;;;;;4.53;2.20;;;11.80;1.00;;;;;;4982522;28;20463;-78
2021/05/23 05:57:25;;;;;;;2.30;2.10;;;11.90;1.00;;;;;;5001634;28;20468;-78
2021/05/23 05:59:51;;;;;;;2.30;2.10;;;11.90;1.00;;;;;;5001566;28;20545;-78
2021/05/23 06:02:17;;;;;;;2.60;2.03;;;11.90;1.00;;;;;;5007620;28;20469;-77
2021/05/23 06:04:44;;;;;;;4.55;2.70;;;11.90;1.00;;;;;;5005679;28;20907;-78
2021/05/23 06:07:10;;;;;;;3.03;2.20;;;11.80;1.00;;;;;;5011435;28;20230;-79
2021/05/23 06:09:36;;;;;;;4.93;1.93;;;11.80;1.00;;;;;;5009749;28;20443;-80
2021/05/23 06:12:03;;;;;;;2.17;1.97;;;11.80;1.00;;;;;;5011296;28;20478;-79
2021/05/23 06:14:32;;;;;;;2.30;2.10;;;11.80;1.00;;;;;;5016240;28;20443;-77
2021/05/23 06:16:59;;;;;;;2.33;2.13;;;11.90;1.00;;;;;;5000603;28;20490;-79
2021/05/23 06:19:25;;;;;;;2.20;2.00;;;11.90;1.00;;;;;;4979427;28;20410;-80
2021/05/23 06:21:51;;;;;;;2.10;2.00;;;11.80;1.00;;;;;;4998118;28;20463;-78
2021/05/23 06:24:17;;;;;;;4.20;2.70;;;11.80;1.00;;;;;;5001813;28;20562;-77
2021/05/23 06:26:44;;;;;;;2.40;2.20;;;11.70;1.00;;;;;;4997716;28;20438;-80
2021/05/23 06:29:10;;;;;;;5.50;2.20;;;11.60;1.00;;;;;;4999173;28;20411;-77
2021/05/23 06:31:37;;;;;;;2.45;2.25;;;11.60;1.00;;;;;;4995437;28;20500;-77
2021/05/23 06:34:03;;;;;;;2.23;1.83;;;11.60;1.00;;;;;;4995351;28;20228;-79
2021/05/23 06:36:29;;;;;;;3.33;2.40;;;11.60;1.00;;;;;;5003760;28;21032;-79
2021/05/23 06:38:55;;;;;;;2.87;2.03;;;11.60;1.00;;;;;;5003816;28;20507;-79
2021/05/23 06:41:22;;;;;;;2.73;2.07;;;11.60;1.00;;;;;;4993950;28;20664;-79
2021/05/23 06:43:48;;;;;;;3.25;2.20;;;11.60;1.00;;;;;;4995334;28;20434;-78
2021/05/23 06:46:14;;;;;;;2.53;2.07;;;11.60;1.00;;;;;;4975482;28;20219;-79
2021/05/23 06:48:41;;;;;;;3.50;2.43;;;11.60;1.00;;;;;;4977622;28;20466;-78
2021/05/23 06:51:07;;;;;;;2.17;1.90;;;11.50;1.00;;;;;;4988799;28;20560;-79
2021/05/23 06:53:34;;;;;;;3.07;2.50;;;11.50;1.00;;;;;;4995810;28;21105;-78
2021/05/23 06:56:00;;;;;;;3.00;2.00;;;11.40;1.00;;;;;;4992941;28;20447;-79
2021/05/23 06:58:27;;;;;;;2.30;1.97;;;11.30;1.00;;;;;;4991576;28;20561;-78
2021/05/23 07:00:53;;;;;;;2.57;2.37;;;11.20;1.00;;;;;;4998745;28;20504;-79
2021/05/23 07:03:19;;;;;;;2.57;2.37;;;11.20;1.00;;;;;;4981024;28;20560;-77
2021/05/23 07:05:46;;;;;;;2.67;2.43;;;11.20;1.00;;;;;;5001089;28;20631;-78
2021/05/23 07:08:12;;;;;;;3.20;2.10;;;11.10;1.00;;;;;;5002125;28;20492;-77
2021/05/23 07:10:38;;;;;;;2.43;2.23;;;11.10;1.00;;;;;;5008039;28;20458;-78
2021/05/23 07:13:05;;;;;;;2.55;2.35;;;11.10;1.00;;;;;;4999731;28;20529;-78
2021/05/23 07:15:31;;;;;;;3.23;2.70;;;11.10;1.00;;;;;;4996995;28;20237;-78
2021/05/23 07:17:58;;;;;;;3.00;2.30;;;11.10;1.00;;;;;;4996280;28;20489;-79
2021/05/23 07:20:25;;;;;;;2.87;2.67;;;11.10;1.00;;;;;;4994480;28;21270;-78
2021/05/23 07:22:52;;;;;;;4.40;2.60;;;11.20;1.00;;;;;;4994237;28;20412;-77
2021/05/23 07:25:18;;;;;;;2.77;2.20;;;11.40;1.00;;;;;;5007657;28;20498;-79
2021/05/23 07:27:44;;;;;;;2.63;2.37;;;11.70;1.00;;;;;;4988915;28;20864;-78
2021/05/23 07:30:12;;;;;;;2.90;2.60;;;11.90;1.00;;;;;;4993381;28;21351;-79
2021/05/23 07:32:38;;;;;;;4.70;2.87;;;12.10;1.00;;;;;;4992344;28;20485;-78
2021/05/23 07:35:05;;;;;;;2.47;2.10;;;12.40;1.00;;;;;;4998221;28;20969;-78
2021/05/23 07:37:31;;;;;;;5.37;3.10;;;12.60;1.00;;;;;;4993088;28;20451;-79
2021/05/23 07:39:59;;;;;;;2.30;2.10;;;12.80;1.00;;;;;;4996238;28;20481;-78
2021/05/23 07:42:25;;;;;;;3.03;1.80;;;13.00;1.00;;;;;;4990599;28;20429;-78
2021/05/23 07:44:51;;;;;;;2.47;2.27;;;13.20;1.00;;;;;;4991445;28;20432;-78
2021/05/23 07:47:17;;;;;;;4.80;2.23;;;13.50;1.00;;;;;;4993687;28;20458;-78
2021/05/23 07:49:44;;;;;;;3.10;1.73;;;13.70;1.00;;;;;;4991751;28;20425;-78
2021/05/23 07:52:11;;;;;;;2.07;1.87;;;14.00;1.00;;;;;;4981766;28;23380;-78
2021/05/23 07:54:38;;;;;;;3.53;2.10;;;14.30;1.00;;;;;;4992933;28;20479;-79
2021/05/23 07:57:06;;;;;;;1.80;1.70;;;14.60;1.00;;;;;;4991361;28;21859;-79
2021/05/23 07:59:33;;;;;;;3.37;2.17;;;14.80;1.00;;;;;;4990782;28;20466;-77
2021/05/23 08:01:59;;;;;;;2.23;2.10;;;15.10;1.00;;;;;;4995945;28;21588;-78
2021/05/23 08:04:25;;;;;;;3.60;2.00;;;15.30;1.00;;;;;;4993864;28;20525;-78
2021/05/23 08:06:51;;;;;;;3.33;2.27;;;15.50;1.00;;;;;;4992437;28;20537;-77
2021/05/23 08:09:19;;;;;;;2.50;1.80;;;15.50;1.00;;;;;;4991995;28;22714;-79
2021/05/23 08:11:46;;;;;;;1.93;1.60;;;15.40;1.00;;;;;;4995156;28;20553;-76
2021/05/23 08:14:14;;;;;;;1.50;1.40;;;15.20;1.00;;;;;;4988719;28;20465;-79
2021/05/23 08:16:41;;;;;;;2.87;1.53;;;15.20;1.00;;;;;;4996217;28;20919;-76
2021/05/23 08:19:07;;;;;;;2.77;1.43;;;15.10;1.00;;;;;;4991498;28;21780;-78
2021/05/23 08:21:33;;;;;;;2.10;1.57;;;15.10;1.00;;;;;;4989101;28;20509;-78
2021/05/23 08:23:59;;;;;;;4.63;2.50;;;15.10;1.00;;;;;;4991158;28;20516;-78
2021/05/23 08:26:27;;;;;;;1.90;1.30;;;15.00;1.00;;;;;;4989123;28;20416;-76
2021/05/23 08:28:53;;;;;;;1.90;1.53;;;14.80;1.00;;;;;;4988447;28;20553;-77
2021/05/23 08:31:20;;;;;;;2.63;1.50;;;14.80;1.00;;;;;;4991415;28;20478;-78
2021/05/23 08:33:46;;;;;;;2.10;1.90;;;15.00;1.00;;;;;;4994665;28;20506;-79
2021/05/23 08:36:12;;;;;;;2.17;1.50;;;15.30;1.00;;;;;;4969468;28;20574;-77
2021/05/23 08:38:38;;;;;;;3.57;1.80;;;15.70;1.00;;;;;;4989449;28;20586;-78
2021/05/23 08:41:05;;;;;;;2.80;1.43;;;16.00;1.00;;;;;;4993269;28;20443;-77
2021/05/23 08:43:31;;;;;;;3.67;1.70;;;16.30;1.00;;;;;;4992562;28;20490;-79
2021/05/23 08:46:00;;;;;;;2.43;1.80;;;16.60;1.00;;;;;;4992334;28;21065;-78
2021/05/23 08:48:28;;;;;;;2.17;1.60;;;16.70;1.00;;;;;;4994019;28;20490;-79
2021/05/23 08:50:55;;;;;;;2.47;1.83;;;16.70;1.00;;;;;;4993931;28;20451;-78
2021/05/23 08:53:22;;;;;;;1.93;1.53;;;16.60;1.00;;;;;;4997263;28;20563;-78
2021/05/23 08:55:48;;;;;;;1.63;1.50;;;16.70;1.00;;;;;;4991834;28;20538;-80
2021/05/23 08:58:15;;;;;;;2.00;1.20;;;16.90;1.00;;;;;;4994439;28;20542;-79
2021/05/23 09:00:41;;;;;;;2.50;1.30;;;16.90;1.00;;;;;;4995093;28;20470;-79
2021/05/23 09:03:11;;;;;;;1.93;1.57;;;16.50;1.00;;;;;;4995459;28;20549;-79
2021/05/23 09:05:41;;;;;;;1.60;1.50;;;16.40;1.00;;;;;;4992265;28;21268;-78
2021/05/23 09:08:12;;;;;;;2.30;1.90;;;16.40;1.00;;;;;;4991930;28;21505;-79
2021/05/23 09:10:38;;;;;;;2.87;2.10;;;16.50;1.00;;;;;;4991661;28;20451;-80
2021/05/23 09:13:05;;;;;;;2.07;1.87;;;16.60;1.00;;;;;;4997343;28;20535;-79
2021/05/23 09:15:31;;;;;;;3.27;1.50;;;16.80;1.00;;;;;;4992749;28;20472;-78
2021/05/23 09:18:03;;;;;;;2.13;1.80;;;17.10;1.00;;;;;;4998861;28;20490;-79
2021/05/23 09:20:30;;;;;;;2.87;1.67;;;17.30;1.00;;;;;;4994521;28;20546;-79
2021/05/23 09:22:59;;;;;;;1.70;1.60;;;17.60;1.00;;;;;;4994912;28;20416;-78
2021/05/23 09:25:30;;;;;;;1.50;1.40;;;17.90;1.00;;;;;;4997052;28;20407;-79
2021/05/23 09:27:57;;;;;;;1.63;1.53;;;18.40;1.00;;;;;;4994566;28;20491;-78
2021/05/23 09:30:27;;;;;;;1.60;1.50;;;19.20;1.00;;;;;;4980136;28;20508;-78
2021/05/23 09:32:55;;;;;;;1.47;1.27;;;19.90;1.00;;;;;;4989297;28;21480;-75
2021/05/23 09:35:22;;;;;;;1.90;1.33;;;19.90;1.00;;;;;;4983571;28;20561;-76
2021/05/23 09:38:00;;;;;;;1.50;1.40;;;19.70;1.00;;;;;;4984232;28;22507;-77
2021/05/23 09:40:30;;;;;;;1.70;1.60;;;19.60;1.00;;;;;;4988019;28;20477;-80
2021/05/23 09:42:57;;;;;;;2.17;1.97;;;19.40;1.00;;;;;;4984501;28;20473;-79
2021/05/23 09:45:25;;;;;;;2.23;1.37;;;20.20;1.00;;;;;;4991668;28;20462;-81
2021/05/23 09:47:56;;;;;;;1.40;1.30;;;20.90;1.00;;;;;;4982567;28;20459;-81
2021/05/23 09:50:33;;;;;;;2.40;1.70;;;21.10;1.00;;;;;;4994132;28;20458;-80
2021/05/23 09:53:01;;;;;;;1.67;1.57;;;21.00;1.00;;;;;;4987485;28;20457;-81
2021/05/23 09:55:28;;;;;;;1.80;1.70;;;21.00;1.00;;;;;;4988676;28;20969;-80
2021/05/23 09:57:54;;;;;;;1.27;1.17;;;21.50;1.00;;;;;;4993995;28;20531;-82
2021/05/23 10:00:21;;;;;;;1.70;1.60;;;21.10;1.00;;;;;;4992623;28;20470;-80
2021/05/23 10:02:52;;;;;;;1.40;1.30;;;20.50;1.00;;;;;;4995067;28;20455;-80
2021/05/23 10:05:18;;;;;;;2.20;1.60;;;19.60;1.00;;;;;;4985525;28;21371;-80
2021/05/23 10:07:45;;;;;;;1.73;1.60;;;18.90;1.00;;;;;;4992608;28;20469;-83
2021/05/23 10:10:13;;;;;;;1.73;1.60;;;18.40;1.00;;;;;;4995099;28;20975;-81
2021/05/23 10:12:40;;;;;;;2.83;1.70;;;18.20;1.00;;;;;;4991932;28;20579;-80
2021/05/23 10:15:10;;;;;;;1.33;1.23;;;18.20;1.00;;;;;;4991905;28;20857;-83
2021/05/23 10:17:37;;;;;;;1.37;1.27;;;19.00;1.00;;;;;;4993923;28;20545;-83
2021/05/23 10:20:05;;;;;;;1.50;1.20;;;19.80;1.00;;;;;;4990111;28;20462;-80
2021/05/23 10:22:35;;;;;;;1.43;1.27;;;21.00;1.00;;;;;;4993030;28;20466;-79
2021/05/23 10:25:05;;;;;;;4.17;3.20;;;22.00;1.00;;;;;;4990681;28;20461;-81
2021/05/23 10:27:36;;;;;;;1.00;0.83;;;23.40;1.00;;;;;;4996452;28;21100;-81
2021/05/23 10:30:05;;;;;;;2.27;0.83;;;24.50;1.00;;;;;;4994040;28;20512;-80
2021/05/23 10:32:33;;;;;;;1.07;0.77;;;25.90;1.00;;;;;;4994528;28;21464;-82
2021/05/23 10:35:13;;;;;;;1.20;1.00;;;26.20;1.00;;;;;;4989272;28;20482;-81
2021/05/23 10:37:41;;;;;;;1.57;0.93;;;27.30;1.00;;;;;;4991111;28;20466;-81
2021/05/23 10:40:20;;;;;;;0.90;0.73;;;27.60;1.00;;;;;;4988417;28;20418;-80
2021/05/23 10:42:52;;;;;;;2.13;1.17;;;27.40;1.00;;;;;;4987009;28;20974;-78
2021/05/23 10:45:23;;;;;;;1.03;0.77;;;27.60;1.00;;;;;;4971422;28;20463;-80
2021/05/23 10:47:50;;;;;;;2.63;0.77;;;28.10;1.00;;;;;;4990234;28;20481;-80
2021/05/23 10:50:16;;;;;;;2.87;0.80;;;27.60;1.00;;;;;;4985182;28;21056;-80
2021/05/23 10:52:44;;;;;;;0.80;0.80;;;26.20;1.00;;;;;;4986643;28;20502;-81
2021/05/23 10:55:14;;;;;;;1.57;1.20;;;24.90;1.00;;;;;;4988731;28;20460;-82
2021/05/23 10:57:42;;;;;;;2.10;1.43;;;23.10;1.00;;;;;;4976142;28;20452;-82
2021/05/23 11:00:14;;;;;;;1.50;1.40;;;22.50;1.00;;;;;;4986407;28;20532;-81
2021/05/23 11:02:41;;;;;;;1.10;0.90;;;23.60;1.00;;;;;;4992551;28;20462;-80
2021/05/23 11:05:10;;;;;;;2.20;1.30;;;24.50;1.00;;;;;;4987322;28;20500;-80
2021/05/23 11:07:37;;;;;;;1.63;1.40;;;25.30;1.00;;;;;;4986821;28;20508;-80
2021/05/23 11:10:16;;;;;;;2.03;1.90;;;26.10;1.00;;;;;;4983092;28;20441;-81
2021/05/23 11:12:54;;;;;;;2.00;1.33;;;25.40;1.00;;;;;;4984062;28;23056;-80
2021/05/23 11:15:21;;;;;;;2.40;1.43;;;24.30;1.00;;;;;;4991034;28;20457;-82
2021/05/23 11:17:49;;;;;;;1.43;1.33;;;23.30;1.00;;;;;;4991370;28;20458;-80
2021/05/23 11:20:17;;;;;;;1.63;1.20;;;22.50;1.00;;;;;;4991154;28;20426;-81
2021/05/23 11:22:46;;;;;;;2.70;1.80;;;22.40;1.00;;;;;;4990678;28;20444;-83
2021/05/23 11:25:13;;;;;;;1.53;1.43;;;22.80;1.00;;;;;;4988732;28;20481;-81
2021/05/23 11:27:39;;;;;;;1.87;1.70;;;23.00;1.00;;;;;;4984908;28;20462;-82
2021/05/23 11:30:11;;;;;;;1.33;1.23;;;23.20;1.00;;;;;;4989965;28;20639;-83
2021/05/23 11:32:38;;;;;;;1.90;1.30;;;23.70;1.00;;;;;;4989476;28;20455;-81
2021/05/23 11:35:05;;;;;;;1.87;0.87;;;24.00;1.00;;;;;;4980246;28;20507;-83
2021/05/23 11:37:37;;;;;;;2.10;1.30;;;23.90;1.00;;;;;;4982186;28;20553;-84
2021/05/23 11:40:10;;;;;;;1.10;0.97;;;23.00;1.00;;;;;;4986468;28;20479;-80
2021/05/23 11:42:41;;;;;;;1.47;1.30;;;22.80;1.00;;;;;;4985738;28;20533;-84
2021/05/23 11:45:40;;;;;;;1.20;1.07;;;23.70;1.00;;;;;;4987762;28;20445;-82
2021/05/23 11:48:08;;;;;;;0.90;0.90;;;25.70;1.00;;;;;;4985566;28;20475;-82
2021/05/23 11:50:35;;;;;;;1.23;1.13;;;27.10;1.00;;;;;;4991021;28;20522;-85
2021/05/23 11:53:01;;;;;;;1.30;1.03;;;27.70;1.00;;;;;;4986052;28;21164;-78
2021/05/23 11:55:30;;;;;;;1.13;1.03;;;29.10;1.00;;;;;;4982530;28;20472;-78
2021/05/23 11:58:10;;;;;;;2.00;1.60;;;30.00;1.00;;;;;;4986253;28;20453;-78
2021/05/23 12:00:37;;;;;;;1.40;1.30;;;30.20;1.00;;;;;;4987549;28;20579;-76
2021/05/23 12:03:05;;;;;;;1.40;1.30;;;28.70;1.00;;;;;;4988884;28;20803;-78
2021/05/23 12:05:43;;;;;;;1.30;1.20;;;26.50;1.00;;;;;;4988822;28;20510;-79
2021/05/23 12:08:19;;;;;;;1.50;1.40;;;24.70;1.00;;;;;;4991434;28;20415;-78
2021/05/23 12:10:58;;;;;;;1.93;1.67;;;23.70;1.00;;;;;;4989666;28;21002;-77
2021/05/23 12:13:36;;;;;;;4.83;4.50;;;23.30;1.00;;;;;;4995287;28;21065;-78
2021/05/23 12:16:02;;;;;;;1.20;1.10;;;23.10;1.00;;;;;;4995593;28;20492;-77
2021/05/23 12:18:40;;;;;;;1.93;1.60;;;22.90;1.00;;;;;;4992311;28;20468;-78
2021/05/23 12:21:10;;;;;;;1.57;1.47;;;22.10;1.00;;;;;;5000135;28;20791;-81
2021/05/23 12:23:37;;;;;;;1.70;1.47;;;22.90;1.00;;;;;;5000837;28;20475;-77
2021/05/23 12:26:09;;;;;;;1.40;1.30;;;24.00;1.00;;;;;;5002224;28;20448;-79
2021/05/23 12:28:37;;;;;;;2.00;1.57;;;23.00;1.00;;;;;;5026332;28;20494;-80
2021/05/23 12:31:05;;;;;;;1.80;1.17;;;22.10;1.00;;;;;;5031245;28;20473;-80
2021/05/23 12:33:31;;;;;;;1.60;1.50;;;21.20;1.00;;;;;;5031390;28;20425;-81
2021/05/23 12:36:06;;;;;;;2.20;2.00;;;21.00;1.00;;;;;;5030212;28;20470;-80
2021/05/23 12:38:33;;;;;;;2.00;1.00;;;20.80;1.00;;;;;;5028174;28;20439;-79
2021/05/23 12:40:59;;;;;;;2.80;1.80;;;20.70;1.00;;;;;;5031162;28;20471;-81
2021/05/23 12:43:27;;;;;;;1.13;1.03;;;20.10;1.00;;;;;;5029760;28;20417;-80
2021/05/23 12:46:00;;;;;;;0.93;0.93;;;19.60;1.00;;;;;;5026881;28;20446;-80
2021/05/23 12:48:31;;;;;;;1.13;1.03;;;19.50;1.00;;;;;;5013988;28;20409;-81
2021/05/23 12:50:58;;;;;;;1.13;1.03;;;19.40;1.00;;;;;;5028595;28;20426;-80
2021/05/23 12:53:25;;;;;;;1.30;1.20;;;19.30;1.00;;;;;;5026114;28;20474;-80
2021/05/23 12:55:53;;;;;;;1.30;1.20;;;20.00;1.00;;;;;;5026249;28;20458;-81
2021/05/23 12:58:20;;;;;;;2.27;0.90;;;22.60;1.00;;;;;;5019540;28;20491;-81
2021/05/23 13:00:48;;;;;;;1.90;1.30;;;25.20;1.00;;;;;;5000783;28;20466;-79
2021/05/23 13:03:15;;;;;;;1.57;0.80;;;27.10;1.00;;;;;;5002465;28;20524;-83